sensor_id;sensor_type;location;lat;lon;timestamp;pressure;altitude;pressure_sealevel;temperature;humidity
76205;BME280;64986;55.672;37.628;2022-12-20T00:02:20;100623.94;;;-3.02;79.12
76205;BME280;64986;55.672;37.628;2022-12-20T00:04:46;100624.19;;;-3.07;79.73
76205;BME280;64986;55.672;37.628;2022-12-20T00:07:11;100625.38;;;-3.12;79.43
76205;BME280;64986;55.672;37.628;2022-12-20T00:09:37;100628.31;;;-3.18;79.10
76205;BME280;64986;55.672;37.628;2022-12-20T00:12:02;100608.38;;;-3.00;79.72
76205;BME280;64986;55.672;37.628;2022-12-20T00:14:28;100641.03;;;-3.15;79.56
76205;BME280;64986;55.672;37.628;2022-12-20T00:16:53;100626.41;;;-3.15;79.52
76205;BME280;64986;55.672;37.628;2022-12-20T00:19:19;100617.94;;;-3.17;79.20
76205;BME280;64986;55.672;37.628;2022-12-20T00:21:44;100610.28;;;-3.18;79.10
76205;BME280;64986;55.672;37.628;2022-12-20T00:24:10;100612.72;;;-3.45;78.53
76205;BME280;64986;55.672;37.628;2022-12-20T00:26:36;100627.09;;;-3.27;78.86
76205;BME280;64986;55.672;37.628;2022-12-20T00:29:02;100631.47;;;-2.99;78.88
76205;BME280;64986;55.672;37.628;2022-12-20T00:31:30;100623.97;;;-3.18;78.59
76205;BME280;64986;55.672;37.628;2022-12-20T00:33:56;100613.25;;;-2.96;79.13
76205;BME280;64986;55.672;37.628;2022-12-20T00:36:24;100609.56;;;-3.06;79.60
76205;BME280;64986;55.672;37.628;2022-12-20T00:38:52;100599.59;;;-3.26;78.49
76205;BME280;64986;55.672;37.628;2022-12-20T00:41:20;100611.69;;;-3.43;78.28
76205;BME280;64986;55.672;37.628;2022-12-20T00:43:46;100600.91;;;-3.49;78.76
76205;BME280;64986;55.672;37.628;2022-12-20T00:46:13;100603.72;;;-3.38;79.02
76205;BME280;64986;55.672;37.628;2022-12-20T00:48:39;100581.34;;;-3.52;79.24
76205;BME280;64986;55.672;37.628;2022-12-20T00:51:10;100580.69;;;-3.55;78.49
76205;BME280;64986;55.672;37.628;2022-12-20T00:53:37;100572.28;;;-3.73;79.11
76205;BME280;64986;55.672;37.628;2022-12-20T00:56:03;100575.34;;;-3.67;78.81
76205;BME280;64986;55.672;37.628;2022-12-20T00:58:31;100574.13;;;-3.75;78.32
76205;BME280;64986;55.672;37.628;2022-12-20T01:00:57;100578.59;;;-3.79;78.41
76205;BME280;64986;55.672;37.628;2022-12-20T01:03:23;100560.19;;;-3.87;78.66
76205;BME280;64986;55.672;37.628;2022-12-20T01:05:54;100557.72;;;-3.58;79.42
76205;BME280;64986;55.672;37.628;2022-12-20T01:08:21;100536.53;;;-3.78;78.92
76205;BME280;64986;55.672;37.628;2022-12-20T01:10:56;100558.63;;;-3.59;79.19
76205;BME280;64986;55.672;37.628;2022-12-20T01:13:22;100552.78;;;-3.47;79.32
76205;BME280;64986;55.672;37.628;2022-12-20T01:15:47;100569.78;;;-3.75;78.85
76205;BME280;64986;55.672;37.628;2022-12-20T01:18:13;100545.66;;;-3.88;78.84
76205;BME280;64986;55.672;37.628;2022-12-20T01:20:38;100521.94;;;-3.63;79.28
76205;BME280;64986;55.672;37.628;2022-12-20T01:23:04;100551.41;;;-3.83;78.61
76205;BME280;64986;55.672;37.628;2022-12-20T01:25:29;100545.53;;;-3.85;79.19
76205;BME280;64986;55.672;37.628;2022-12-20T01:27:55;100541.38;;;-4.03;78.67
76205;BME280;64986;55.672;37.628;2022-12-20T01:30:20;100549.59;;;-3.67;79.72
76205;BME280;64986;55.672;37.628;2022-12-20T01:32:46;100533.25;;;-3.66;79.08
76205;BME280;64986;55.672;37.628;2022-12-20T01:35:11;100530.00;;;-3.39;79.17
76205;BME280;64986;55.672;37.628;2022-12-20T01:37:36;100532.72;;;-3.56;79.33
76205;BME280;64986;55.672;37.628;2022-12-20T01:40:02;100540.91;;;-3.80;78.54
76205;BME280;64986;55.672;37.628;2022-12-20T01:42:28;100525.97;;;-3.73;79.35
76205;BME280;64986;55.672;37.628;2022-12-20T01:44:56;100544.31;;;-3.49;78.94
76205;BME280;64986;55.672;37.628;2022-12-20T01:47:24;100544.44;;;-3.37;78.79
76205;BME280;64986;55.672;37.628;2022-12-20T01:49:51;100527.75;;;-3.59;78.98
76205;BME280;64986;55.672;37.628;2022-12-20T01:52:28;65559.31;;;-144.76;100.00
76205;BME280;64986;55.672;37.628;2022-12-20T01:55:19;65559.31;;;-144.76;100.00
76205;BME280;64986;55.672;37.628;2022-12-20T02:00:21;65559.31;;;-144.76;100.00
76205;BME280;64986;55.672;37.628;2022-12-20T02:02:48;65559.31;;;-144.76;100.00
76205;BME280;64986;55.672;37.628;2022-12-20T02:05:14;65559.31;;;-144.76;100.00
76205;BME280;64986;55.672;37.628;2022-12-20T02:07:41;65559.31;;;-144.76;100.00
76205;BME280;64986;55.672;37.628;2022-12-20T02:10:09;65559.31;;;-144.76;100.00
76205;BME280;64986;55.672;37.628;2022-12-20T02:12:46;65559.31;;;-144.76;100.00
76205;BME280;64986;55.672;37.628;2022-12-20T02:26:13;65559.31;;;-144.76;100.00
76205;BME280;64986;55.672;37.628;2022-12-20T02:31:25;100507.53;;;-4.41;78.14
76205;BME280;64986;55.672;37.628;2022-12-20T02:33:54;100521.63;;;-4.80;77.54
76205;BME280;64986;55.672;37.628;2022-12-20T02:36:22;100506.38;;;-4.67;78.86
76205;BME280;64986;55.672;37.628;2022-12-20T02:38:48;100493.97;;;-4.59;78.90
76205;BME280;64986;55.672;37.628;2022-12-20T02:41:23;100497.75;;;-4.66;78.40
76205;BME280;64986;55.672;37.628;2022-12-20T02:44:01;100476.53;;;-4.70;77.88
76205;BME280;64986;55.672;37.628;2022-12-20T02:46:46;100481.34;;;-4.64;78.25
76205;BME280;64986;55.672;37.628;2022-12-20T02:49:16;100489.47;;;-4.71;77.90
76205;BME280;64986;55.672;37.628;2022-12-20T02:51:45;100478.88;;;-4.97;77.54
76205;BME280;64986;55.672;37.628;2022-12-20T02:54:12;100479.03;;;-4.53;78.89
76205;BME280;64986;55.672;37.628;2022-12-20T02:56:44;100493.53;;;-4.67;78.16
76205;BME280;64986;55.672;37.628;2022-12-20T02:59:18;100473.06;;;-4.85;77.33
76205;BME280;64986;55.672;37.628;2022-12-20T03:01:51;100455.91;;;-5.00;77.31
76205;BME280;64986;55.672;37.628;2022-12-20T03:04:19;100457.97;;;-5.07;77.27
76205;BME280;64986;55.672;37.628;2022-12-20T03:06:59;100464.53;;;-5.01;76.46
76205;BME280;64986;55.672;37.628;2022-12-20T03:09:25;100459.78;;;-5.24;75.96
76205;BME280;64986;55.672;37.628;2022-12-20T03:11:51;100448.47;;;-5.20;76.59
76205;BME280;64986;55.672;37.628;2022-12-20T03:14:17;100450.13;;;-5.04;77.50
76205;BME280;64986;55.672;37.628;2022-12-20T03:16:43;100442.50;;;-5.05;77.37
76205;BME280;64986;55.672;37.628;2022-12-20T03:19:08;100434.72;;;-5.19;76.66
76205;BME280;64986;55.672;37.628;2022-12-20T03:21:34;100427.66;;;-5.16;76.41
76205;BME280;64986;55.672;37.628;2022-12-20T03:23:59;100424.19;;;-5.15;76.54
76205;BME280;64986;55.672;37.628;2022-12-20T03:26:25;100432.28;;;-5.22;75.94
76205;BME280;64986;55.672;37.628;2022-12-20T03:28:50;100413.59;;;-5.24;75.64
76205;BME280;64986;55.672;37.628;2022-12-20T03:31:16;100404.47;;;-5.30;75.89
76205;BME280;64986;55.672;37.628;2022-12-20T03:33:41;100403.66;;;-4.99;77.77
76205;BME280;64986;55.672;37.628;2022-12-20T03:36:07;100412.03;;;-5.11;76.37
76205;BME280;64986;55.672;37.628;2022-12-20T03:38:33;100407.00;;;-5.13;76.55
76205;BME280;64986;55.672;37.628;2022-12-20T03:40:58;100404.47;;;-5.30;75.31
76205;BME280;64986;55.672;37.628;2022-12-20T03:43:24;100402.25;;;-5.36;74.81
76205;BME280;64986;55.672;37.628;2022-12-20T03:45:49;100399.84;;;-5.23;75.93
76205;BME280;64986;55.672;37.628;2022-12-20T03:48:15;100399.03;;;-5.08;76.85
76205;BME280;64986;55.672;37.628;2022-12-20T03:50:40;100396.53;;;-5.25;75.70
76205;BME280;64986;55.672;37.628;2022-12-20T03:53:06;100388.34;;;-5.32;74.71
76205;BME280;64986;55.672;37.628;2022-12-20T03:55:31;100380.81;;;-5.35;75.72
76205;BME280;64986;55.672;37.628;2022-12-20T03:57:57;100385.34;;;-5.56;74.99
76205;BME280;64986;55.672;37.628;2022-12-20T04:00:22;100379.69;;;-5.63;74.77
76205;BME280;64986;55.672;37.628;2022-12-20T04:02:48;100382.84;;;-5.57;74.56
76205;BME280;64986;55.672;37.628;2022-12-20T04:05:14;100375.13;;;-5.73;74.57
76205;BME280;64986;55.672;37.628;2022-12-20T04:07:40;100371.44;;;-5.85;73.96
76205;BME280;64986;55.672;37.628;2022-12-20T04:10:06;100362.88;;;-5.68;75.17
76205;BME280;64986;55.672;37.628;2022-12-20T04:12:32;100365.53;;;-5.70;75.43
76205;BME280;64986;55.672;37.628;2022-12-20T04:14:58;100350.47;;;-5.60;75.09
76205;BME280;64986;55.672;37.628;2022-12-20T04:17:23;100358.13;;;-5.59;75.67
76205;BME280;64986;55.672;37.628;2022-12-20T04:19:48;100338.44;;;-5.58;75.27
76205;BME280;64986;55.672;37.628;2022-12-20T04:22:14;100356.03;;;-5.52;74.24
76205;BME280;64986;55.672;37.628;2022-12-20T04:24:39;100346.38;;;-5.47;74.74
76205;BME280;64986;55.672;37.628;2022-12-20T04:27:05;100346.84;;;-5.56;74.89
76205;BME280;64986;55.672;37.628;2022-12-20T04:29:31;100347.44;;;-5.51;75.90
76205;BME280;64986;55.672;37.628;2022-12-20T04:31:56;100346.69;;;-5.53;74.88
76205;BME280;64986;55.672;37.628;2022-12-20T04:34:22;100353.00;;;-5.59;73.60
76205;BME280;64986;55.672;37.628;2022-12-20T04:36:47;100342.88;;;-5.62;73.56
76205;BME280;64986;55.672;37.628;2022-12-20T04:39:13;100336.38;;;-5.84;73.25
76205;BME280;64986;55.672;37.628;2022-12-20T04:41:38;100334.25;;;-5.76;73.91
76205;BME280;64986;55.672;37.628;2022-12-20T04:44:04;100335.34;;;-5.80;73.47
76205;BME280;64986;55.672;37.628;2022-12-20T04:46:29;100341.13;;;-5.61;74.32
76205;BME280;64986;55.672;37.628;2022-12-20T04:48:55;100333.09;;;-5.87;71.86
76205;BME280;64986;55.672;37.628;2022-12-20T04:51:20;100339.16;;;-5.72;73.88
76205;BME280;64986;55.672;37.628;2022-12-20T04:53:46;100343.03;;;-5.65;74.59
76205;BME280;64986;55.672;37.628;2022-12-20T04:56:20;100339.53;;;-5.79;73.70
76205;BME280;64986;55.672;37.628;2022-12-20T04:58:48;100329.81;;;-6.06;72.04
76205;BME280;64986;55.672;37.628;2022-12-20T05:01:14;100339.06;;;-6.19;71.96
76205;BME280;64986;55.672;37.628;2022-12-20T05:03:41;100334.22;;;-6.08;73.03
76205;BME280;64986;55.672;37.628;2022-12-20T05:06:07;100328.03;;;-6.04;74.24
76205;BME280;64986;55.672;37.628;2022-12-20T05:08:33;100331.88;;;-6.12;72.94
76205;BME280;64986;55.672;37.628;2022-12-20T05:10:59;100326.44;;;-6.06;74.37
76205;BME280;64986;55.672;37.628;2022-12-20T05:13:25;100323.81;;;-6.22;72.68
76205;BME280;64986;55.672;37.628;2022-12-20T05:15:51;100328.47;;;-6.13;73.11
76205;BME280;64986;55.672;37.628;2022-12-20T05:18:17;100319.00;;;-6.28;72.01
76205;BME280;64986;55.672;37.628;2022-12-20T05:20:43;100313.91;;;-6.46;70.31
76205;BME280;64986;55.672;37.628;2022-12-20T05:23:09;100306.63;;;-6.20;72.63
76205;BME280;64986;55.672;37.628;2022-12-20T05:25:54;100307.41;;;-6.18;72.71
76205;BME280;64986;55.672;37.628;2022-12-20T05:28:52;100309.84;;;-6.32;71.65
76205;BME280;64986;55.672;37.628;2022-12-20T05:31:18;100308.91;;;-6.14;72.04
76205;BME280;64986;55.672;37.628;2022-12-20T05:33:44;100315.66;;;-5.96;72.41
76205;BME280;64986;55.672;37.628;2022-12-20T05:36:09;100300.59;;;-6.02;72.77
76205;BME280;64986;55.672;37.628;2022-12-20T05:38:35;100298.34;;;-6.08;71.49
76205;BME280;64986;55.672;37.628;2022-12-20T05:41:00;100300.00;;;-6.07;71.38
76205;BME280;64986;55.672;37.628;2022-12-20T05:43:26;100287.25;;;-6.41;70.67
76205;BME280;64986;55.672;37.628;2022-12-20T05:45:52;100281.53;;;-6.47;69.00
76205;BME280;64986;55.672;37.628;2022-12-20T05:48:18;100279.63;;;-6.43;70.24
76205;BME280;64986;55.672;37.628;2022-12-20T05:50:45;100263.91;;;-6.53;69.04
76205;BME280;64986;55.672;37.628;2022-12-20T05:53:11;100263.53;;;-6.45;70.77
76205;BME280;64986;55.672;37.628;2022-12-20T05:55:37;100268.69;;;-6.29;70.89
76205;BME280;64986;55.672;37.628;2022-12-20T05:58:05;100241.31;;;-6.45;70.37
76205;BME280;64986;55.672;37.628;2022-12-20T06:00:31;100255.75;;;-6.26;70.79
76205;BME280;64986;55.672;37.628;2022-12-20T06:02:56;100249.53;;;-6.22;71.05
76205;BME280;64986;55.672;37.628;2022-12-20T06:05:22;100251.97;;;-6.36;69.96
76205;BME280;64986;55.672;37.628;2022-12-20T06:07:47;100261.72;;;-6.10;70.68
76205;BME280;64986;55.672;37.628;2022-12-20T06:10:13;100259.88;;;-6.24;69.39
76205;BME280;64986;55.672;37.628;2022-12-20T06:12:38;100258.13;;;-6.23;69.94
76205;BME280;64986;55.672;37.628;2022-12-20T06:15:04;100260.69;;;-6.23;70.43
76205;BME280;64986;55.672;37.628;2022-12-20T06:17:30;100261.94;;;-6.15;70.99
76205;BME280;64986;55.672;37.628;2022-12-20T06:19:55;100237.88;;;-6.28;68.40
76205;BME280;64986;55.672;37.628;2022-12-20T06:22:21;100253.56;;;-6.34;68.14
76205;BME280;64986;55.672;37.628;2022-12-20T06:24:47;100259.34;;;-6.30;68.07
76205;BME280;64986;55.672;37.628;2022-12-20T06:27:12;100259.66;;;-6.36;68.96
76205;BME280;64986;55.672;37.628;2022-12-20T06:29:38;100248.38;;;-6.32;69.94
76205;BME280;64986;55.672;37.628;2022-12-20T06:32:03;100240.81;;;-6.18;70.61
76205;BME280;64986;55.672;37.628;2022-12-20T06:34:30;100249.53;;;-6.22;69.93
76205;BME280;64986;55.672;37.628;2022-12-20T06:36:56;100242.00;;;-6.58;68.35
76205;BME280;64986;55.672;37.628;2022-12-20T06:39:22;100236.66;;;-6.54;69.04
76205;BME280;64986;55.672;37.628;2022-12-20T06:41:47;100238.91;;;-6.48;68.82
76205;BME280;64986;55.672;37.628;2022-12-20T06:44:13;100232.16;;;-6.33;69.15
76205;BME280;64986;55.672;37.628;2022-12-20T06:46:38;100227.78;;;-6.31;69.36
76205;BME280;64986;55.672;37.628;2022-12-20T06:49:04;100221.84;;;-6.31;68.07
76205;BME280;64986;55.672;37.628;2022-12-20T06:51:29;100218.13;;;-6.26;69.08
76205;BME280;64986;55.672;37.628;2022-12-20T06:53:55;100212.53;;;-6.17;70.16
76205;BME280;64986;55.672;37.628;2022-12-20T06:56:20;100212.19;;;-6.26;69.40
76205;BME280;64986;55.672;37.628;2022-12-20T06:58:46;100201.78;;;-5.92;70.40
76205;BME280;64986;55.672;37.628;2022-12-20T07:01:11;100201.06;;;-6.09;69.07
76205;BME280;64986;55.672;37.628;2022-12-20T07:03:37;100188.06;;;-5.91;69.63
76205;BME280;64986;55.672;37.628;2022-12-20T07:06:03;100196.44;;;-6.36;66.12
76205;BME280;64986;55.672;37.628;2022-12-20T07:08:28;100183.50;;;-6.66;66.76
76205;BME280;64986;55.672;37.628;2022-12-20T07:10:54;100177.88;;;-6.39;69.25
76205;BME280;64986;55.672;37.628;2022-12-20T07:13:20;100165.38;;;-6.46;68.48
76205;BME280;64986;55.672;37.628;2022-12-20T07:15:46;100159.78;;;-6.36;68.92
76205;BME280;64986;55.672;37.628;2022-12-20T07:18:11;100154.25;;;-6.29;69.48
76205;BME280;64986;55.672;37.628;2022-12-20T07:20:37;100148.38;;;-6.31;69.80
76205;BME280;64986;55.672;37.628;2022-12-20T07:23:03;100141.41;;;-6.45;68.63
76205;BME280;64986;55.672;37.628;2022-12-20T07:25:28;100146.41;;;-6.41;69.23
76205;BME280;64986;55.672;37.628;2022-12-20T07:27:54;100143.25;;;-6.15;69.05
76205;BME280;64986;55.672;37.628;2022-12-20T07:30:20;100132.50;;;-6.22;69.55
76205;BME280;64986;55.672;37.628;2022-12-20T07:32:46;100123.34;;;-6.41;68.05
76205;BME280;64986;55.672;37.628;2022-12-20T07:35:12;100121.53;;;-6.39;68.54
76205;BME280;64986;55.672;37.628;2022-12-20T07:37:38;100110.28;;;-6.53;68.31
76205;BME280;64986;55.672;37.628;2022-12-20T07:40:05;100101.34;;;-6.46;67.88
76205;BME280;64986;55.672;37.628;2022-12-20T07:42:31;100099.72;;;-6.47;68.37
76205;BME280;64986;55.672;37.628;2022-12-20T07:44:56;100093.03;;;-6.49;67.92
76205;BME280;64986;55.672;37.628;2022-12-20T07:47:22;100097.31;;;-6.50;67.77
76205;BME280;64986;55.672;37.628;2022-12-20T07:49:47;100084.44;;;-6.32;68.61
76205;BME280;64986;55.672;37.628;2022-12-20T07:52:19;100083.66;;;-6.50;67.43
76205;BME280;64986;55.672;37.628;2022-12-20T07:54:51;100066.34;;;-6.45;67.83
76205;BME280;64986;55.672;37.628;2022-12-20T07:57:26;100062.44;;;-6.36;68.02
76205;BME280;64986;55.672;37.628;2022-12-20T07:59:56;100037.09;;;-6.41;68.24
76205;BME280;64986;55.672;37.628;2022-12-20T08:02:31;100052.63;;;-6.60;64.24
76205;BME280;64986;55.672;37.628;2022-12-20T08:04:58;100054.75;;;-6.68;65.49
76205;BME280;64986;55.672;37.628;2022-12-20T08:07:24;100041.47;;;-6.59;66.08
76205;BME280;64986;55.672;37.628;2022-12-20T08:09:51;100041.31;;;-6.40;66.96
76205;BME280;64986;55.672;37.628;2022-12-20T08:12:17;100038.84;;;-6.57;64.53
76205;BME280;64986;55.672;37.628;2022-12-20T08:14:43;100043.28;;;-6.45;66.60
76205;BME280;64986;55.672;37.628;2022-12-20T08:17:09;100013.06;;;-6.54;64.41
76205;BME280;64986;55.672;37.628;2022-12-20T08:19:36;100016.41;;;-6.22;67.00
76205;BME280;64986;55.672;37.628;2022-12-20T08:22:01;100013.63;;;-6.65;66.14
76205;BME280;64986;55.672;37.628;2022-12-20T08:24:27;100021.88;;;-6.44;65.35
76205;BME280;64986;55.672;37.628;2022-12-20T08:26:53;100028.72;;;-6.29;66.45
76205;BME280;64986;55.672;37.628;2022-12-20T08:29:18;100021.66;;;-6.55;63.60
76205;BME280;64986;55.672;37.628;2022-12-20T08:31:45;100020.91;;;-6.41;65.99
76205;BME280;64986;55.672;37.628;2022-12-20T08:34:10;100026.09;;;-6.59;64.32
76205;BME280;64986;55.672;37.628;2022-12-20T08:36:36;100018.00;;;-6.51;65.14
76205;BME280;64986;55.672;37.628;2022-12-20T08:39:03;99995.06;;;-6.53;66.55
76205;BME280;64986;55.672;37.628;2022-12-20T08:41:29;99997.38;;;-6.48;65.88
76205;BME280;64986;55.672;37.628;2022-12-20T08:43:54;100000.44;;;-6.41;66.41
76205;BME280;64986;55.672;37.628;2022-12-20T08:46:20;99996.69;;;-6.36;67.14
76205;BME280;64986;55.672;37.628;2022-12-20T08:48:45;99999.84;;;-6.47;65.61
76205;BME280;64986;55.672;37.628;2022-12-20T08:51:11;100000.97;;;-6.36;65.07
76205;BME280;64986;55.672;37.628;2022-12-20T08:53:37;99989.09;;;-6.37;67.18
76205;BME280;64986;55.672;37.628;2022-12-20T08:56:23;99978.31;;;-6.28;66.25
76205;BME280;64986;55.672;37.628;2022-12-20T08:58:48;99976.53;;;-5.96;65.86
76205;BME280;64986;55.672;37.628;2022-12-20T09:01:16;99993.00;;;-5.72;65.26
76205;BME280;64986;55.672;37.628;2022-12-20T09:03:43;99973.03;;;-5.81;62.93
76205;BME280;64986;55.672;37.628;2022-12-20T09:06:12;99967.94;;;-5.38;64.04
76205;BME280;64986;55.672;37.628;2022-12-20T09:08:39;99970.13;;;-5.18;62.45
76205;BME280;64986;55.672;37.628;2022-12-20T09:11:05;99957.88;;;-5.27;61.37
76205;BME280;64986;55.672;37.628;2022-12-20T09:13:31;99937.91;;;-4.81;63.36
76205;BME280;64986;55.672;37.628;2022-12-20T09:16:03;99934.94;;;-4.75;60.19
76205;BME280;64986;55.672;37.628;2022-12-20T09:18:29;99915.63;;;-4.40;61.82
76205;BME280;64986;55.672;37.628;2022-12-20T09:20:58;99923.06;;;-4.36;61.33
76205;BME280;64986;55.672;37.628;2022-12-20T09:23:23;99922.78;;;-4.19;60.90
76205;BME280;64986;55.672;37.628;2022-12-20T09:25:48;99913.88;;;-3.62;61.63
76205;BME280;64986;55.672;37.628;2022-12-20T09:28:14;99911.28;;;-3.49;60.98
76205;BME280;64986;55.672;37.628;2022-12-20T09:30:39;99921.56;;;-3.87;58.14
76205;BME280;64986;55.672;37.628;2022-12-20T09:33:05;99907.16;;;-3.65;60.09
76205;BME280;64986;55.672;37.628;2022-12-20T09:35:31;99913.53;;;-3.32;60.17
76205;BME280;64986;55.672;37.628;2022-12-20T09:37:57;99900.75;;;-3.33;60.05
76205;BME280;64986;55.672;37.628;2022-12-20T09:40:25;99892.28;;;-3.23;59.86
76205;BME280;64986;55.672;37.628;2022-12-20T09:42:53;99888.44;;;-2.57;59.22
76205;BME280;64986;55.672;37.628;2022-12-20T09:45:27;99896.22;;;-2.69;53.85
76205;BME280;64986;55.672;37.628;2022-12-20T09:47:53;99879.09;;;-2.46;57.50
76205;BME280;64986;55.672;37.628;2022-12-20T09:50:31;99864.63;;;-2.25;55.42
76205;BME280;64986;55.672;37.628;2022-12-20T09:55:47;99859.31;;;-1.66;53.09
76205;BME280;64986;55.672;37.628;2022-12-20T10:01:19;99859.38;;;-2.83;56.03
76205;BME280;64986;55.672;37.628;2022-12-20T10:03:45;99842.91;;;-3.90;57.96
76205;BME280;64986;55.672;37.628;2022-12-20T10:21:40;99805.81;;;-1.64;53.80
76205;BME280;64986;55.672;37.628;2022-12-20T10:24:16;99786.34;;;-1.90;51.40
76205;BME280;64986;55.672;37.628;2022-12-20T10:26:42;99787.78;;;-1.32;54.19
76205;BME280;64986;55.672;37.628;2022-12-20T10:29:08;99793.69;;;-1.52;54.07
76205;BME280;64986;55.672;37.628;2022-12-20T10:31:33;99783.25;;;-1.07;52.54
76205;BME280;64986;55.672;37.628;2022-12-20T10:34:00;99781.81;;;-1.00;52.77
76205;BME280;64986;55.672;37.628;2022-12-20T10:36:28;99770.50;;;-0.88;51.88
76205;BME280;64986;55.672;37.628;2022-12-20T10:39:02;99774.97;;;-1.65;49.46
76205;BME280;64986;55.672;37.628;2022-12-20T10:44:27;99774.16;;;-2.00;51.76
76205;BME280;64986;55.672;37.628;2022-12-20T10:46:56;99776.81;;;-2.35;54.40
76205;BME280;64986;55.672;37.628;2022-12-20T10:49:28;99759.97;;;-1.94;54.65
76205;BME280;64986;55.672;37.628;2022-12-20T10:52:15;99757.94;;;-1.57;53.75
76205;BME280;64986;55.672;37.628;2022-12-20T10:54:44;99754.59;;;-2.02;52.05
76205;BME280;64986;55.672;37.628;2022-12-20T10:57:26;99748.00;;;-2.06;54.16
76205;BME280;64986;55.672;37.628;2022-12-20T10:59:58;99741.22;;;-2.41;52.58
76205;BME280;64986;55.672;37.628;2022-12-20T11:02:29;99743.56;;;-1.93;54.39
76205;BME280;64986;55.672;37.628;2022-12-20T11:07:56;99733.50;;;-1.96;52.89
76205;BME280;64986;55.672;37.628;2022-12-20T11:10:24;99736.84;;;-2.63;52.67
76205;BME280;64986;55.672;37.628;2022-12-20T11:13:00;99730.38;;;-2.80;55.60
76205;BME280;64986;55.672;37.628;2022-12-20T11:15:31;99726.44;;;-3.55;54.76
76205;BME280;64986;55.672;37.628;2022-12-20T11:18:21;99735.28;;;-3.23;54.80
76205;BME280;64986;55.672;37.628;2022-12-20T11:21:02;99733.72;;;-3.73;54.09
76205;BME280;64986;55.672;37.628;2022-12-20T11:23:40;99736.06;;;-2.98;53.80
76205;BME280;64986;55.672;37.628;2022-12-20T11:26:24;99729.22;;;-1.63;51.18
76205;BME280;64986;55.672;37.628;2022-12-20T11:34:41;99721.97;;;-3.65;52.33
76205;BME280;64986;55.672;37.628;2022-12-20T11:37:25;99715.53;;;-4.20;55.25
76205;BME280;64986;55.672;37.628;2022-12-20T11:40:25;99727.66;;;-4.85;56.50
76205;BME280;64986;55.672;37.628;2022-12-20T11:51:46;99729.09;;;-4.94;59.64
76205;BME280;64986;55.672;37.628;2022-12-20T11:54:18;99717.97;;;-5.07;60.83
76205;BME280;64986;55.672;37.628;2022-12-20T11:56:47;99727.50;;;-5.09;61.09
76205;BME280;64986;55.672;37.628;2022-12-20T11:59:40;99714.91;;;-5.12;61.95
76205;BME280;64986;55.672;37.628;2022-12-20T12:02:13;99722.81;;;-5.42;61.81
76205;BME280;64986;55.672;37.628;2022-12-20T12:07:40;99709.63;;;-5.77;62.53
76205;BME280;64986;55.672;37.628;2022-12-20T12:10:20;99707.19;;;-5.79;62.76
76205;BME280;64986;55.672;37.628;2022-12-20T12:12:54;99704.56;;;-5.92;62.57
76205;BME280;64986;55.672;37.628;2022-12-20T12:15:52;99705.59;;;-5.94;62.37
76205;BME280;64986;55.672;37.628;2022-12-20T12:18:31;99701.88;;;-6.03;64.03
76205;BME280;64986;55.672;37.628;2022-12-20T12:26:39;99695.22;;;-6.34;65.08
76205;BME280;64986;55.672;37.628;2022-12-20T12:32:02;99705.53;;;-6.21;64.94
76205;BME280;64986;55.672;37.628;2022-12-20T12:40:42;99715.88;;;-6.23;65.79
76205;BME280;64986;55.672;37.628;2022-12-20T12:46:17;99701.25;;;-6.35;66.45
76205;BME280;64986;55.672;37.628;2022-12-20T12:51:32;99694.91;;;-6.15;67.48
76205;BME280;64986;55.672;37.628;2022-12-20T12:54:22;99705.72;;;-6.24;66.59
76205;BME280;64986;55.672;37.628;2022-12-20T12:56:51;99704.66;;;-6.34;67.23
76205;BME280;64986;55.672;37.628;2022-12-20T12:59:44;99702.53;;;-6.28;66.74
76205;BME280;64986;55.672;37.628;2022-12-20T13:20:18;99699.59;;;-6.36;67.73
76205;BME280;64986;55.672;37.628;2022-12-20T13:25:46;99700.69;;;-6.11;68.30
76205;BME280;64986;55.672;37.628;2022-12-20T13:30:43;99686.28;;;-6.55;68.17
76205;BME280;64986;55.672;37.628;2022-12-20T13:33:41;99689.81;;;-6.15;69.23
76205;BME280;64986;55.672;37.628;2022-12-20T13:38:53;99698.56;;;-6.05;68.48
76205;BME280;64986;55.672;37.628;2022-12-20T13:41:38;99691.66;;;-6.46;66.66
76205;BME280;64986;55.672;37.628;2022-12-20T13:44:18;99684.63;;;-6.56;68.40
76205;BME280;64986;55.672;37.628;2022-12-20T13:46:51;99678.50;;;-6.54;68.75
76205;BME280;64986;55.672;37.628;2022-12-20T13:49:25;99686.53;;;-6.60;67.49
76205;BME280;64986;55.672;37.628;2022-12-20T13:54:46;99685.09;;;-6.50;69.04
76205;BME280;64986;55.672;37.628;2022-12-20T13:57:29;99687.81;;;-6.53;68.81
76205;BME280;64986;55.672;37.628;2022-12-20T13:59:58;99687.72;;;-6.37;69.38
76205;BME280;64986;55.672;37.628;2022-12-20T14:02:31;99683.59;;;-6.39;68.97
76205;BME280;64986;55.672;37.628;2022-12-20T14:05:05;99688.91;;;-6.43;69.39
76205;BME280;64986;55.672;37.628;2022-12-20T14:07:33;99692.38;;;-6.29;68.91
76205;BME280;64986;55.672;37.628;2022-12-20T14:10:01;99695.28;;;-6.07;69.75
76205;BME280;64986;55.672;37.628;2022-12-20T14:12:28;99690.84;;;-6.32;69.11
76205;BME280;64986;55.672;37.628;2022-12-20T14:14:55;99682.03;;;-6.28;69.00
76205;BME280;64986;55.672;37.628;2022-12-20T14:17:29;99672.81;;;-6.30;69.14
76205;BME280;64986;55.672;37.628;2022-12-20T14:20:20;99679.03;;;-6.34;68.60
76205;BME280;64986;55.672;37.628;2022-12-20T14:23:03;99671.44;;;-6.50;68.92
76205;BME280;64986;55.672;37.628;2022-12-20T14:25:43;99674.81;;;-6.35;70.02
76205;BME280;64986;55.672;37.628;2022-12-20T14:30:46;99663.13;;;-6.39;70.19
76205;BME280;64986;55.672;37.628;2022-12-20T14:33:20;99670.31;;;-6.18;70.40
76205;BME280;64986;55.672;37.628;2022-12-20T14:35:48;99659.03;;;-6.42;70.42
76205;BME280;64986;55.672;37.628;2022-12-20T14:38:21;99655.00;;;-6.46;70.69
76205;BME280;64986;55.672;37.628;2022-12-20T14:40:47;99689.00;;;-6.87;69.65
76205;BME280;64986;55.672;37.628;2022-12-20T14:43:15;99660.75;;;-6.85;70.04
76205;BME280;64986;55.672;37.628;2022-12-20T14:45:40;99670.25;;;-6.73;71.50